createdAt,value
2023-02-11T00:00:59.390Z,101305.13
2023-02-11T00:03:28.414Z,101300.54
2023-02-11T00:06:01.175Z,101303.04
2023-02-11T00:08:29.967Z,101300.11
2023-02-11T00:10:58.868Z,101306.35
2023-02-11T00:13:30.507Z,101307.99
2023-02-11T00:16:10.389Z,101311.06
2023-02-11T00:18:45.002Z,101306.61
2023-02-11T00:21:18.764Z,101306.05
2023-02-11T00:23:50.347Z,101309.63
2023-02-11T00:26:24.179Z,101312.98
2023-02-11T00:28:53.051Z,101310.91
2023-02-11T00:31:22.595Z,101307.27
2023-02-11T00:34:02.795Z,101302.92
2023-02-11T00:36:37.624Z,101300.59
2023-02-11T00:39:09.488Z,101302.56
2023-02-11T00:41:39.196Z,101302.20
2023-02-11T00:44:10.140Z,101306.52
2023-02-11T00:46:38.849Z,101302.23
2023-02-11T00:49:07.613Z,101298.69
2023-02-11T00:51:40.616Z,101295.65
2023-02-11T00:54:09.497Z,101291.52
2023-02-11T00:56:41.141Z,101287.91
2023-02-11T00:59:09.528Z,101283.41
2023-02-11T01:01:43.274Z,101282.67
2023-02-11T01:04:12.129Z,101281.91
2023-02-11T01:06:41.115Z,101282.32
2023-02-11T01:09:10.008Z,101283.25
2023-02-11T01:11:41.666Z,101281.35
2023-02-11T01:14:12.809Z,101281.02
2023-02-11T01:16:41.700Z,101285.13
2023-02-11T01:19:12.945Z,101283.54
2023-02-11T01:21:48.519Z,101283.77
2023-02-11T01:24:24.059Z,101288.48
2023-02-11T01:26:56.108Z,101285.90
2023-02-11T01:29:34.334Z,101288.36
2023-02-11T01:32:03.464Z,101291.50
2023-02-11T01:34:41.325Z,101291.40
2023-02-11T01:37:10.204Z,101292.46
2023-02-11T01:39:41.247Z,101284.63
2023-02-11T01:42:15.823Z,101277.66
2023-02-11T01:44:51.625Z,101280.71
2023-02-11T01:47:23.074Z,101281.77
2023-02-11T01:49:59.477Z,101282.66
2023-02-11T01:52:33.368Z,101278.59
2023-02-11T01:55:27.535Z,101277.70
2023-02-11T01:58:01.549Z,101268.02
2023-02-11T02:00:38.330Z,101268.38
2023-02-11T02:03:27.008Z,101265.95
2023-02-11T02:06:17.270Z,101266.33
2023-02-11T02:09:22.605Z,101262.08
2023-02-11T02:11:51.306Z,101259.41
2023-02-11T02:14:29.101Z,101259.39
2023-02-11T02:17:02.395Z,101256.45
2023-02-11T02:20:09.689Z,101261.86
2023-02-11T02:22:54.270Z,101260.06
2023-02-11T02:25:33.476Z,101253.73
2023-02-11T02:28:22.473Z,101254.46
2023-02-11T02:31:09.889Z,101250.75
2023-02-11T02:33:46.888Z,101251.82
2023-02-11T02:36:21.539Z,101244.66
2023-02-11T02:39:18.726Z,101241.98
2023-02-11T02:41:47.620Z,101245.02
2023-02-11T02:44:19.786Z,101249.77
2023-02-11T02:46:48.906Z,101247.03
2023-02-11T02:49:19.903Z,101245.94
2023-02-11T02:51:54.689Z,101246.82
2023-02-11T02:54:26.112Z,101246.34
2023-02-11T02:57:30.776Z,101245.10
2023-02-11T03:00:24.574Z,101248.02
2023-02-11T03:03:24.885Z,101249.25
2023-02-11T03:05:57.257Z,101245.71
2023-02-11T03:08:28.351Z,101239.57
2023-02-11T03:10:59.501Z,101242.90
2023-02-11T03:13:33.683Z,101239.68
2023-02-11T03:16:27.473Z,101235.57
2023-02-11T03:19:22.459Z,101229.75
2023-02-11T03:21:52.118Z,101226.96
2023-02-11T03:24:37.210Z,101226.83
2023-02-11T03:27:16.119Z,101227.56
2023-02-11T03:30:01.707Z,101222.04
2023-02-11T03:32:41.305Z,101218.73
2023-02-11T03:35:36.766Z,101213.17
2023-02-11T03:38:20.599Z,101206.20
2023-02-11T03:40:51.311Z,101205.44
2023-02-11T03:43:29.283Z,101198.67
2023-02-11T03:46:00.612Z,101196.67
2023-02-11T03:48:36.782Z,101190.44
2023-02-11T03:51:09.628Z,101179.77
2023-02-11T03:53:42.665Z,101177.39
2023-02-11T03:56:13.806Z,101175.17
2023-02-11T03:58:47.632Z,101180.29
2023-02-11T04:01:19.220Z,101186.70
2023-02-11T04:03:48.116Z,101190.96
2023-02-11T04:06:19.790Z,101185.56
2023-02-11T04:08:51.424Z,101184.85
2023-02-11T04:11:25.304Z,101181.99
2023-02-11T04:14:13.801Z,101171.67
2023-02-11T04:16:47.318Z,101162.73
2023-02-11T04:19:18.984Z,101162.70
2023-02-11T04:21:47.542Z,101163.90
2023-02-11T04:24:19.136Z,101160.80
2023-02-11T04:26:47.657Z,101156.03
2023-02-11T04:29:16.246Z,101147.04
2023-02-11T04:31:47.630Z,101144.15
2023-02-11T04:34:17.986Z,101141.16
2023-02-11T04:36:51.929Z,101138.34
2023-02-11T04:39:23.267Z,101130.52
2023-02-11T04:42:02.351Z,101133.02
2023-02-11T04:44:36.180Z,101128.08
2023-02-11T04:47:04.954Z,101130.82
2023-02-11T04:49:33.746Z,101128.05
2023-02-11T04:52:05.354Z,101121.48
2023-02-11T04:54:36.094Z,101117.73
2023-02-11T04:57:04.780Z,101120.25
2023-02-11T04:59:57.549Z,101113.72
2023-02-11T05:02:32.219Z,101112.12
2023-02-11T05:05:01.036Z,101116.81
2023-02-11T05:07:30.141Z,101116.70
2023-02-11T05:10:01.457Z,101112.92
2023-02-11T05:12:30.529Z,101111.96
2023-02-11T05:14:59.005Z,101113.96
2023-02-11T05:17:27.440Z,101111.29
2023-02-11T05:19:56.124Z,101113.05
2023-02-11T05:22:24.809Z,101110.64
2023-02-11T05:24:53.406Z,101109.02
2023-02-11T05:27:21.715Z,101106.91
2023-02-11T05:29:50.048Z,101099.21
2023-02-11T05:32:22.895Z,101096.48
2023-02-11T05:34:51.885Z,101098.46
2023-02-11T05:37:20.608Z,101099.02
2023-02-11T05:40:02.262Z,101089.39
2023-02-11T05:42:33.738Z,101089.77
2023-02-11T05:45:04.945Z,101086.23
2023-02-11T05:47:46.617Z,101077.91
2023-02-11T05:50:15.716Z,101074.73
2023-02-11T05:52:54.392Z,101073.16
2023-02-11T05:55:44.423Z,101066.48
2023-02-11T05:58:19.255Z,101053.51
2023-02-11T06:00:48.144Z,101050.70
2023-02-11T06:03:22.672Z,101046.08
2023-02-11T06:05:51.834Z,101048.13
2023-02-11T06:08:23.212Z,101049.45
2023-02-11T06:10:55.217Z,101055.52
2023-02-11T06:13:26.936Z,101051.42
2023-02-11T06:15:57.868Z,101049.27
2023-02-11T06:18:29.843Z,101035.48
2023-02-11T06:21:09.526Z,101029.59
2023-02-11T06:23:46.979Z,101021.33
2023-02-11T06:26:23.343Z,101019.52
2023-02-11T06:28:55.509Z,101016.51
2023-02-11T06:31:24.103Z,101014.06
2023-02-11T06:34:03.225Z,101007.30
2023-02-11T06:36:53.127Z,101011.49
2023-02-11T06:39:35.334Z,101007.18
2023-02-11T06:43:31.373Z,101010.86
2023-02-11T06:46:30.687Z,101002.67
2023-02-11T06:49:55.658Z,101001.36
2023-02-11T06:52:23.832Z,101004.52
2023-02-11T06:54:55.223Z,101003.12
2023-02-11T06:57:23.662Z,100995.30
2023-02-11T07:00:33.619Z,101006.99
2023-02-11T07:03:11.703Z,101011.34
2023-02-11T07:06:25.059Z,101007.17
2023-02-11T07:08:57.026Z,101000.20
2023-02-11T07:11:49.369Z,101000.52
2023-02-11T07:14:18.150Z,100993.35
2023-02-11T07:17:15.824Z,100991.87
2023-02-11T07:19:53.227Z,100989.84
2023-02-11T07:22:56.606Z,100985.38
2023-02-11T07:25:45.363Z,100988.46
2023-02-11T07:28:22.493Z,100992.06
2023-02-11T07:30:51.264Z,100992.94
2023-02-11T07:33:20.436Z,100987.28
2023-02-11T07:35:49.657Z,100983.33
2023-02-11T07:38:38.799Z,100981.75
2023-02-11T07:41:09.543Z,100971.83
2023-02-11T07:43:41.191Z,100957.60
2023-02-11T07:46:12.130Z,100944.48
2023-02-11T07:48:40.796Z,100935.26
2023-02-11T07:51:25.762Z,100932.17
2023-02-11T07:54:01.639Z,100920.24
2023-02-11T07:56:30.419Z,100917.36
2023-02-11T07:59:03.634Z,100914.15
2023-02-11T08:01:33.588Z,100918.15
2023-02-11T08:04:02.591Z,100911.96
2023-02-11T08:06:33.516Z,100910.30
2023-02-11T08:09:12.566Z,100906.88
2023-02-11T08:11:53.213Z,100895.05
2023-02-11T08:14:21.897Z,100897.41
2023-02-11T08:16:56.419Z,100902.60
2023-02-11T08:19:27.039Z,100908.18
2023-02-11T08:22:01.778Z,100903.34
2023-02-11T08:24:37.017Z,100904.48
2023-02-11T08:27:29.148Z,100902.52
2023-02-11T08:30:03.028Z,100895.16
2023-02-11T08:32:32.398Z,100903.14
2023-02-11T08:35:03.843Z,100900.43
2023-02-11T08:37:34.779Z,100901.54
2023-02-11T08:40:03.438Z,100892.58
2023-02-11T08:42:37.179Z,100887.25
2023-02-11T08:45:19.199Z,100882.10
2023-02-11T08:47:53.308Z,100879.23
2023-02-11T08:50:27.425Z,100871.89
2023-02-11T08:52:56.284Z,100867.05
2023-02-11T08:55:30.546Z,100862.40
2023-02-11T08:58:19.306Z,100860.81
2023-02-11T09:00:57.422Z,100851.82
2023-02-11T09:03:36.918Z,100842.55
2023-02-11T09:06:07.158Z,100837.73
2023-02-11T09:08:37.154Z,100828.33
2023-02-11T09:11:06.151Z,100823.59
2023-02-11T09:13:34.941Z,100813.29
2023-02-11T09:16:05.130Z,100812.38
2023-02-11T09:18:33.916Z,100807.21
2023-02-11T09:21:08.995Z,100799.75
2023-02-11T09:23:37.759Z,100797.67
2023-02-11T09:26:14.028Z,100799.66
2023-02-11T09:28:42.911Z,100800.70
2023-02-11T09:31:15.885Z,100798.41
2023-02-11T09:33:48.112Z,100801.96
2023-02-11T09:36:38.571Z,100802.83
2023-02-11T09:39:29.707Z,100797.41
2023-02-11T09:42:32.728Z,100786.70
2023-02-11T09:45:35.266Z,100784.31
2023-02-11T09:48:13.705Z,100778.39
2023-02-11T09:51:42.776Z,100766.89
2023-02-11T09:54:29.215Z,100761.33
2023-02-11T09:56:57.947Z,100755.05
2023-02-11T09:59:33.209Z,100747.62
2023-02-11T10:02:26.962Z,100743.54
2023-02-11T10:05:28.174Z,100740.55
2023-02-11T10:08:33.241Z,100727.92
2023-02-11T10:11:19.992Z,100721.66
2023-02-11T10:14:16.718Z,100716.65
2023-02-11T10:17:08.646Z,100703.70
2023-02-11T10:20:17.178Z,100698.80
2023-02-11T10:22:58.298Z,100695.35
2023-02-11T10:25:45.506Z,100695.02
2023-02-11T10:28:25.272Z,100691.44
2023-02-11T10:31:06.775Z,100691.56
2023-02-11T10:33:59.636Z,100692.88
2023-02-11T10:36:57.799Z,100686.19
2023-02-11T10:39:45.295Z,100686.33
2023-02-11T10:42:14.010Z,100677.66
2023-02-11T10:45:32.695Z,100674.41
2023-02-11T10:48:07.484Z,100664.40
2023-02-11T10:51:14.314Z,100659.02
2023-02-11T10:53:59.245Z,100652.73
2023-02-11T10:56:28.006Z,100643.08
2023-02-11T10:59:56.231Z,100634.55
2023-02-11T11:02:34.771Z,100626.80
2023-02-11T11:05:07.990Z,100615.92
2023-02-11T11:07:43.669Z,100611.16
2023-02-11T11:10:34.986Z,100599.63
2023-02-11T11:13:24.050Z,100594.58
2023-02-11T11:16:23.142Z,100590.98
2023-02-11T11:19:13.806Z,100579.77
2023-02-11T11:21:52.372Z,100569.00
2023-02-11T11:25:01.734Z,100563.11
2023-02-11T11:27:48.908Z,100552.46
2023-02-11T11:30:18.000Z,100550.85
2023-02-11T11:32:56.728Z,100547.34
2023-02-11T11:35:30.047Z,100539.77
2023-02-11T11:38:06.327Z,100533.95
2023-02-11T11:40:36.425Z,100528.40
2023-02-11T11:43:23.286Z,100516.86
2023-02-11T11:45:59.369Z,100512.25
2023-02-11T11:48:40.948Z,100506.70
2023-02-11T11:51:11.220Z,100507.70
2023-02-11T11:53:55.584Z,100502.00
2023-02-11T11:56:32.690Z,100495.80
2023-02-11T11:59:18.902Z,100485.92
2023-02-11T12:01:54.562Z,100474.84
2023-02-11T12:04:33.483Z,100466.31
2023-02-11T12:07:36.919Z,100460.05
2023-02-11T12:10:15.090Z,100450.02
2023-02-11T12:13:09.504Z,100442.75
2023-02-11T12:15:54.373Z,100444.70
2023-02-11T12:18:47.840Z,100439.73
2023-02-11T12:21:54.931Z,100432.20
2023-02-11T12:24:52.487Z,100417.33
2023-02-11T12:27:45.733Z,100412.52
2023-02-11T12:30:39.520Z,100407.67
2023-02-11T12:33:23.119Z,100394.20
2023-02-11T12:36:27.953Z,100394.05
2023-02-11T12:39:16.229Z,100386.70
2023-02-11T12:42:06.708Z,100385.93
2023-02-11T12:45:11.341Z,100381.23
2023-02-11T12:47:41.459Z,100369.01
2023-02-11T12:50:32.745Z,100363.52
2023-02-11T12:53:13.165Z,100356.84
2023-02-11T12:55:48.395Z,100346.13
2023-02-11T12:58:35.472Z,100346.98
2023-02-11T13:01:39.351Z,100343.29
2023-02-11T13:04:33.601Z,100336.32
2023-02-11T13:07:12.531Z,100332.11
2023-02-11T13:09:54.668Z,100324.18
2023-02-11T13:12:44.089Z,100320.48
2023-02-11T13:15:15.905Z,100315.14
2023-02-11T13:18:31.846Z,100309.20
2023-02-11T13:21:27.280Z,100311.19
2023-02-11T13:24:44.625Z,100301.53
2023-02-11T13:27:41.649Z,100301.86
2023-02-11T13:30:30.539Z,100296.35
2023-02-11T13:33:17.719Z,100291.95
2023-02-11T13:36:08.639Z,100285.07
2023-02-11T13:38:39.804Z,100289.73
2023-02-11T13:41:29.265Z,100285.64
2023-02-11T13:44:02.061Z,100281.77
2023-02-11T13:47:07.876Z,100279.55
2023-02-11T13:49:50.871Z,100278.76
2023-02-11T13:52:56.854Z,100279.88
2023-02-11T13:55:26.464Z,100269.63
2023-02-11T13:58:27.699Z,100267.49
2023-02-11T14:01:06.967Z,100261.28
2023-02-11T16:11:09.293Z,100122.21
2023-02-11T16:13:46.470Z,100109.67
2023-02-11T16:16:19.985Z,100110.66
2023-02-11T16:19:04.638Z,100101.08
2023-02-11T16:21:39.469Z,100106.13
2023-02-11T16:24:18.401Z,100105.52
2023-02-11T16:26:49.438Z,100100.34
2023-02-11T16:29:23.971Z,100095.42
2023-02-11T16:31:53.320Z,100089.14
2023-02-11T16:34:25.538Z,100085.46
2023-02-11T16:36:57.513Z,100085.73
2023-02-11T16:39:26.234Z,100078.45
2023-02-11T16:41:55.487Z,100077.02
2023-02-11T16:44:24.278Z,100073.85
2023-02-11T16:46:53.521Z,100079.42
2023-02-11T16:49:33.374Z,100075.56
2023-02-11T16:52:13.686Z,100072.68
2023-02-11T16:54:45.550Z,100078.35
2023-02-11T16:57:22.112Z,100080.70
2023-02-11T16:59:50.802Z,100079.77
2023-02-11T17:02:41.090Z,100075.55
2023-02-11T17:05:20.308Z,100074.28
2023-02-11T17:07:53.924Z,100070.26
2023-02-11T17:10:25.661Z,100060.82
2023-02-11T17:12:56.846Z,100054.88
2023-02-11T17:15:25.735Z,100043.93
2023-02-11T17:17:58.740Z,100035.58
2023-02-11T17:20:27.412Z,100041.84
2023-02-11T17:22:55.892Z,100045.40
2023-02-11T17:25:25.301Z,100045.94
2023-02-11T17:27:57.543Z,100045.38
2023-02-11T17:30:29.117Z,100047.95
2023-02-11T17:33:00.365Z,100047.52
2023-02-11T17:35:29.052Z,100042.82
2023-02-11T17:38:03.003Z,100036.98
2023-02-11T17:40:32.312Z,100032.48
2023-02-11T17:43:00.789Z,100028.09
2023-02-11T17:45:30.854Z,100023.52
2023-02-11T17:48:09.786Z,100024.59
2023-02-11T17:50:51.240Z,100023.32
2023-02-11T17:53:20.741Z,100023.95
2023-02-11T17:55:49.633Z,100023.33
2023-02-11T17:58:19.016Z,100022.92
2023-02-11T18:00:48.019Z,100018.81
2023-02-11T18:03:16.805Z,100017.44
2023-02-11T18:05:46.203Z,100018.77
2023-02-11T18:08:14.992Z,100012.19
2023-02-11T18:10:47.162Z,100011.15
2023-02-11T18:13:16.262Z,100004.14
2023-02-11T18:15:50.279Z,100001.98
2023-02-11T18:18:21.514Z,99997.45
2023-02-11T18:21:13.906Z,99990.77
2023-02-11T18:23:50.442Z,99996.83
2023-02-11T18:26:20.613Z,99989.41
2023-02-11T18:29:12.268Z,99990.04
2023-02-11T18:31:48.799Z,99990.40
2023-02-11T18:34:23.013Z,99990.45
2023-02-11T18:36:51.631Z,99994.50
2023-02-11T18:39:24.455Z,99993.80
2023-02-11T18:42:05.220Z,99993.59
2023-02-11T18:44:56.159Z,99990.23
2023-02-11T18:47:27.733Z,99988.04
2023-02-11T18:49:56.708Z,99983.73
2023-02-11T18:52:24.984Z,99975.30
2023-02-11T18:54:56.231Z,99974.14
2023-02-11T18:57:27.799Z,99968.04
2023-02-11T18:59:57.393Z,99961.89
2023-02-11T19:02:29.560Z,99963.08
2023-02-11T19:04:57.914Z,99963.58
2023-02-11T19:07:26.412Z,99962.72
2023-02-11T19:09:54.979Z,99957.29
2023-02-11T19:12:33.765Z,99961.48
2023-02-11T19:15:07.775Z,99945.09
2023-02-11T19:17:37.078Z,99948.48
2023-02-11T19:20:16.013Z,99945.46
2023-02-11T19:22:53.458Z,99944.91
2023-02-11T19:25:24.212Z,99944.11
2023-02-11T19:27:53.030Z,99941.81
2023-02-11T19:30:21.925Z,99936.35
2023-02-11T19:32:52.870Z,99931.70
2023-02-11T19:35:21.753Z,99935.61
2023-02-11T19:37:53.102Z,99929.04
2023-02-11T19:40:29.561Z,99924.84
2023-02-11T19:42:59.414Z,99919.08
2023-02-11T19:45:31.274Z,99928.60
2023-02-11T19:47:59.879Z,99920.65
2023-02-11T19:50:31.926Z,99922.30
2023-02-11T19:53:21.206Z,99922.28
2023-02-11T19:55:57.710Z,99920.74
2023-02-11T19:58:29.867Z,99921.69
2023-02-11T20:01:24.904Z,99920.89
2023-02-11T20:03:54.333Z,99914.59
2023-02-11T20:06:34.233Z,99913.16
2023-02-11T20:09:10.271Z,99907.87
2023-02-11T20:11:39.081Z,99909.52
2023-02-11T20:14:12.636Z,99898.73
2023-02-11T20:16:48.762Z,99911.70
2023-02-11T20:19:21.819Z,99918.24
2023-02-11T20:21:56.006Z,99895.60
2023-02-11T20:24:25.829Z,99891.77
2023-02-11T20:26:57.595Z,99908.77
2023-02-11T20:29:33.600Z,99908.67
2023-02-11T20:32:03.643Z,99899.96
2023-02-11T20:34:32.506Z,99892.48
2023-02-11T20:37:04.282Z,99893.66
2023-02-11T20:39:37.457Z,99897.22
2023-02-11T20:42:11.801Z,99901.29
2023-02-11T20:44:40.790Z,99900.17
2023-02-11T20:47:11.912Z,99895.82
2023-02-11T20:49:41.120Z,99892.63
2023-02-11T20:52:09.901Z,99893.10
2023-02-11T20:54:45.554Z,99897.70
2023-02-11T20:57:14.855Z,99896.67
2023-02-11T20:59:46.715Z,99893.05
2023-02-11T21:02:16.527Z,99888.95
2023-02-11T21:04:45.518Z,99891.46
2023-02-11T21:07:14.361Z,99892.37
2023-02-11T21:09:43.430Z,99888.98
2023-02-11T21:12:14.701Z,99888.05
2023-02-11T21:14:46.563Z,99888.88
2023-02-11T21:17:18.725Z,99887.44
2023-02-11T21:19:47.229Z,99885.17
2023-02-11T21:22:24.821Z,99882.98
2023-02-11T21:24:57.081Z,99880.39
2023-02-11T21:27:37.002Z,99878.98
2023-02-11T21:30:07.296Z,99877.71
2023-02-11T21:32:35.938Z,99879.89
2023-02-11T21:35:24.694Z,99876.25
2023-02-11T21:37:56.250Z,99869.77
2023-02-11T21:40:29.633Z,99866.29
2023-02-11T21:42:57.913Z,99866.73
2023-02-11T21:45:26.801Z,99864.71
2023-02-11T21:47:55.532Z,99871.05
2023-02-11T21:50:27.236Z,99866.43
2023-02-11T21:52:56.520Z,99867.73
2023-02-11T21:55:25.228Z,99864.70
2023-02-11T21:57:53.860Z,99864.28
2023-02-11T22:00:22.447Z,99865.27
2023-02-11T22:02:50.987Z,99862.89
2023-02-11T22:05:40.071Z,99868.36
2023-02-11T22:08:09.091Z,99867.92
2023-02-11T22:10:39.135Z,99866.88
2023-02-11T22:13:08.062Z,99864.84
2023-02-11T22:15:36.851Z,99872.13
2023-02-11T22:18:25.337Z,99869.93
2023-02-11T22:21:02.546Z,99866.96
2023-02-11T22:23:34.407Z,99871.02
2023-02-11T22:26:07.834Z,99868.81
2023-02-11T22:28:43.254Z,99869.19
2023-02-11T22:31:22.295Z,99869.90
2023-02-11T22:33:58.928Z,99868.14
2023-02-11T22:36:35.492Z,99870.59
2023-02-11T22:39:14.262Z,99872.79
2023-02-11T22:42:14.813Z,99871.92
2023-02-11T22:44:46.208Z,99877.32
2023-02-11T22:47:55.055Z,99876.05
2023-02-11T22:50:44.241Z,99876.44
2023-02-11T22:53:29.032Z,99880.63
2023-02-11T22:56:16.124Z,99881.20
2023-02-11T22:58:50.849Z,99879.50
2023-02-11T23:01:36.780Z,99877.44
2023-02-11T23:04:15.328Z,99884.46
2023-02-11T23:06:50.635Z,99883.27
2023-02-11T23:09:21.822Z,99889.30
2023-02-11T23:12:04.911Z,99891.98
2023-02-11T23:14:36.565Z,99894.13
2023-02-11T23:17:08.228Z,99894.33
2023-02-11T23:20:08.022Z,99900.55
2023-02-11T23:23:20.439Z,99909.53
2023-02-11T23:26:19.720Z,99908.95
2023-02-11T23:28:53.654Z,99909.52
2023-02-11T23:32:27.791Z,99914.46
2023-02-11T23:35:23.677Z,99916.36
2023-02-11T23:38:11.900Z,99925.40
2023-02-11T23:41:08.120Z,99929.14
2023-02-11T23:43:50.229Z,99927.44
2023-02-11T23:46:54.357Z,99935.40
2023-02-11T23:50:11.898Z,99944.77
2023-02-11T23:52:56.333Z,99948.14
2023-02-11T23:56:12.764Z,99949.41
2023-02-11T23:58:46.466Z,99951.17
